createdAt,value
2023-03-22T00:01:27.544Z,100989.09
2023-03-22T00:03:54.362Z,100986.22
2023-03-22T00:06:20.996Z,100982.09
2023-03-22T00:08:53.130Z,100980.97
2023-03-22T00:11:22.524Z,100975.22
2023-03-22T00:13:52.531Z,100961.25
2023-03-22T00:16:19.944Z,100962.81
2023-03-22T00:18:46.759Z,100966.66
2023-03-22T00:21:17.141Z,100961.44
2023-03-22T00:23:44.584Z,100954.09
2023-03-22T00:26:12.687Z,100971.63
2023-03-22T00:28:39.209Z,100955.69
2023-03-22T00:31:06.968Z,100956.81
2023-03-22T00:33:33.998Z,100957.16
2023-03-22T00:36:03.058Z,100957.16
2023-03-22T00:38:43.785Z,100960.53
2023-03-22T00:41:16.500Z,100951.63
2023-03-22T00:43:44.177Z,100957.66
2023-03-22T00:46:11.306Z,100940.66
2023-03-22T00:48:38.506Z,100943.69
2023-03-22T00:51:05.617Z,100948.31
2023-03-22T00:53:33.022Z,100935.47
2023-03-22T00:55:59.945Z,100937.50
2023-03-22T00:58:26.493Z,100934.91
2023-03-22T01:00:53.113Z,100922.50
2023-03-22T01:03:21.821Z,100924.09
2023-03-22T01:05:52.091Z,100912.47
2023-03-22T01:08:18.621Z,100912.47
2023-03-22T01:10:45.393Z,100902.44
2023-03-22T01:13:12.428Z,100896.41
2023-03-22T01:15:38.931Z,100884.78
2023-03-22T01:18:05.796Z,100885.13
2023-03-22T01:20:32.422Z,100878.91
2023-03-22T01:22:59.545Z,100885.78
2023-03-22T01:25:26.248Z,100881.16
2023-03-22T01:27:53.866Z,100879.25
2023-03-22T01:30:20.574Z,100871.59
2023-03-22T01:32:47.042Z,100868.09
2023-03-22T01:35:13.503Z,100868.91
2023-03-22T01:37:40.551Z,100864.28
2023-03-22T01:40:07.926Z,100855.38
2023-03-22T01:42:34.394Z,100849.28
2023-03-22T01:45:32.755Z,100841.63
2023-03-22T01:48:09.835Z,100827.44
2023-03-22T01:50:39.580Z,100832.19
2023-03-22T01:53:08.621Z,100823.84
2023-03-22T01:55:35.627Z,100813.50
2023-03-22T01:58:03.318Z,100812.38
2023-03-22T02:00:30.328Z,100807.75
2023-03-22T02:02:57.065Z,100803.13
2023-03-22T02:05:25.217Z,100796.25
2023-03-22T02:07:53.094Z,100792.56
2023-03-22T02:10:24.218Z,100779.03
2023-03-22T02:13:11.949Z,100784.88
2023-03-22T02:16:06.488Z,100781.84
2023-03-22T02:18:39.015Z,100776.09
2023-03-22T02:21:14.651Z,100773.03
2023-03-22T02:24:01.871Z,100765.50
2023-03-22T02:26:50.096Z,100774.06
2023-03-22T02:29:26.424Z,100772.13
2023-03-22T02:32:01.812Z,100768.78
2023-03-22T02:35:00.632Z,100766.19
2023-03-22T02:38:12.140Z,100765.03
2023-03-22T02:40:58.656Z,100751.16
2023-03-22T02:43:30.781Z,100746.53
2023-03-22T02:46:09.927Z,100747.00
2023-03-22T02:48:56.536Z,100749.38
2023-03-22T02:51:57.812Z,100750.63
2023-03-22T02:54:32.854Z,100736.72
2023-03-22T02:57:32.700Z,100724.78
2023-03-22T03:00:01.315Z,100728.41
2023-03-22T03:02:30.740Z,100720.38
2023-03-22T03:04:57.922Z,100722.28
2023-03-22T03:07:28.831Z,100711.09
2023-03-22T03:09:56.322Z,100710.44
2023-03-22T03:12:27.269Z,100710.91
2023-03-22T03:14:54.402Z,100709.75
2023-03-22T03:17:39.272Z,100708.97
2023-03-22T03:20:22.004Z,100711.34
2023-03-22T03:23:15.534Z,100729.94
2023-03-22T03:26:12.301Z,100733.78
2023-03-22T03:29:17.617Z,100724.44
2023-03-22T03:31:52.684Z,100737.28
2023-03-22T03:34:25.971Z,100728.81
2023-03-22T03:37:17.399Z,100721.03
2023-03-22T03:39:51.593Z,100727.22
2023-03-22T03:42:19.094Z,100722.94
2023-03-22T03:44:45.862Z,100715.97
2023-03-22T03:47:13.141Z,100720.59
2023-03-22T03:49:39.785Z,100720.16
2023-03-22T03:52:06.808Z,100726.69
2023-03-22T03:54:33.371Z,100725.44
2023-03-22T03:57:03.422Z,100717.66
2023-03-22T03:59:30.509Z,100716.88
2023-03-22T04:01:57.143Z,100710.78
2023-03-22T04:04:27.225Z,100725.56
2023-03-22T04:06:58.732Z,100718.22
2023-03-22T04:09:27.322Z,100717.09
2023-03-22T04:11:54.899Z,100712.38
2023-03-22T04:14:22.014Z,100715.06
2023-03-22T04:16:48.748Z,100720.81
2023-03-22T04:19:15.449Z,100724.34
2023-03-22T04:21:42.281Z,100719.22
2023-03-22T04:24:09.209Z,100723.50
2023-03-22T04:26:36.010Z,100713.94
2023-03-22T04:29:03.075Z,100711.69
2023-03-22T04:31:31.580Z,100705.81
2023-03-22T04:34:00.303Z,100689.91
2023-03-22T04:36:31.079Z,100689.13
2023-03-22T04:38:58.057Z,100695.00
2023-03-22T04:41:24.630Z,100686.06
2023-03-22T04:43:51.684Z,100692.28
2023-03-22T04:46:18.288Z,100679.09
2023-03-22T04:48:44.843Z,100681.44
2023-03-22T04:51:11.552Z,100690.38
2023-03-22T04:53:41.053Z,100683.72
2023-03-22T04:56:10.512Z,100677.16
2023-03-22T04:58:42.643Z,100673.31
2023-03-22T05:01:11.000Z,100670.63
2023-03-22T05:03:38.102Z,100670.63
2023-03-22T05:06:07.509Z,100679.88
2023-03-22T05:08:34.618Z,100669.38
2023-03-22T05:11:16.423Z,100662.38
2023-03-22T05:13:43.249Z,100671.53
2023-03-22T05:16:10.895Z,100671.88
2023-03-22T05:18:42.370Z,100671.09
2023-03-22T05:21:15.576Z,100674.59
2023-03-22T05:23:43.215Z,100662.50
2023-03-22T05:26:10.432Z,100666.34
2023-03-22T05:28:38.553Z,100663.63
2023-03-22T05:31:05.753Z,100660.84
2023-03-22T05:33:34.684Z,100656.91
2023-03-22T05:36:01.252Z,100657.69
2023-03-22T05:38:28.101Z,100661.84
2023-03-22T05:40:54.559Z,100651.00
2023-03-22T05:43:21.324Z,100651.00
2023-03-22T05:45:48.077Z,100658.81
2023-03-22T05:48:14.597Z,100657.56
2023-03-22T05:50:41.332Z,100655.53
2023-03-22T05:53:08.000Z,100652.84
2023-03-22T05:55:34.462Z,100653.63
2023-03-22T05:58:01.935Z,100649.00
2023-03-22T06:00:32.193Z,100646.63
2023-03-22T06:03:03.478Z,100640.44
2023-03-22T06:05:36.618Z,100643.16
2023-03-22T06:08:03.801Z,100653.97
2023-03-22T06:10:30.598Z,100644.94
2023-03-22T06:12:57.090Z,100654.31
2023-03-22T06:15:23.705Z,100648.13
2023-03-22T06:17:50.345Z,100646.50
2023-03-22T06:20:17.063Z,100658.13
2023-03-22T06:22:43.641Z,100655.09
2023-03-22T06:25:10.950Z,100651.25
2023-03-22T06:27:37.843Z,100649.78
2023-03-22T06:30:05.052Z,100654.84
2023-03-22T06:32:31.470Z,100652.28
2023-03-22T06:34:57.896Z,100654.72
2023-03-22T06:37:25.005Z,100653.72
2023-03-22T06:39:52.259Z,100651.88
2023-03-22T06:42:18.839Z,100650.19
2023-03-22T06:44:45.305Z,100648.03
2023-03-22T06:47:12.368Z,100643.06
2023-03-22T06:49:39.420Z,100656.69
2023-03-22T06:52:06.484Z,100650.94
2023-03-22T06:54:33.060Z,100650.25
2023-03-22T06:56:59.588Z,100658.59
2023-03-22T06:59:26.108Z,100663.09
2023-03-22T07:01:52.558Z,100650.06
2023-03-22T07:04:20.004Z,100661.34
2023-03-22T07:06:47.016Z,100656.69
2023-03-22T07:09:13.626Z,100657.41
2023-03-22T07:11:40.206Z,100657.75
2023-03-22T07:14:06.762Z,100650.06
2023-03-22T07:16:33.281Z,100649.28
2023-03-22T07:18:59.781Z,100669.81
2023-03-22T07:21:26.446Z,100654.69
2023-03-22T07:23:53.149Z,100652.34
2023-03-22T07:26:19.594Z,100651.28
2023-03-22T07:28:46.153Z,100668.09
2023-03-22T07:31:13.491Z,100660.94
2023-03-22T07:33:40.654Z,100657.31
2023-03-22T07:36:09.430Z,100662.94
2023-03-22T07:38:36.367Z,100650.63
2023-03-22T07:41:03.336Z,100654.19
2023-03-22T07:43:29.833Z,100659.72
2023-03-22T07:45:56.382Z,100659.38
2023-03-22T07:48:23.571Z,100653.94
2023-03-22T07:50:50.305Z,100647.38
2023-03-22T07:53:16.735Z,100673.91
2023-03-22T07:55:43.289Z,100669.09
2023-03-22T07:58:09.820Z,100659.13
2023-03-22T08:00:36.422Z,100662.97
2023-03-22T08:03:02.968Z,100666.03
2023-03-22T08:05:29.518Z,100656.69
2023-03-22T08:07:56.887Z,100658.25
2023-03-22T08:10:23.767Z,100658.34
2023-03-22T08:12:50.250Z,100665.16
2023-03-22T08:15:16.856Z,100660.47
2023-03-22T08:17:43.399Z,100656.06
2023-03-22T08:20:10.658Z,100693.97
2023-03-22T08:22:37.136Z,100664.13
2023-03-22T08:25:04.709Z,100662.63
2023-03-22T08:27:31.652Z,100669.00
2023-03-22T08:29:58.642Z,100674.88
2023-03-22T08:32:25.430Z,100663.28
2023-03-22T08:34:52.773Z,100666.00
2023-03-22T08:37:22.184Z,100655.16
2023-03-22T08:39:48.832Z,100666.19
2023-03-22T08:42:15.388Z,100665.63
2023-03-22T08:44:41.941Z,100667.72
2023-03-22T08:47:08.526Z,100678.22
2023-03-22T08:49:35.576Z,100647.19
2023-03-22T08:52:02.108Z,100650.72
2023-03-22T08:54:33.757Z,100644.84
2023-03-22T08:57:00.684Z,100651.50
2023-03-22T08:59:27.901Z,100653.50
2023-03-22T09:01:54.500Z,100650.00
2023-03-22T09:04:21.096Z,100648.78
2023-03-22T09:06:47.594Z,100644.78
2023-03-22T09:09:14.628Z,100666.06
2023-03-22T09:11:42.674Z,100655.38
2023-03-22T09:14:09.722Z,100661.53
2023-03-22T09:16:37.196Z,100651.28
2023-03-22T09:19:03.979Z,100640.78
2023-03-22T09:21:30.565Z,100647.38
2023-03-22T09:23:57.079Z,100655.09
2023-03-22T09:26:24.173Z,100668.66
2023-03-22T09:28:50.910Z,100651.59
2023-03-22T09:31:19.832Z,100650.50
2023-03-22T09:33:46.941Z,100655.16
2023-03-22T09:36:13.468Z,100670.59
2023-03-22T09:38:41.360Z,100661.06
2023-03-22T09:41:39.745Z,100654.66
2023-03-22T09:44:15.923Z,100677.00
2023-03-22T09:46:48.091Z,100660.72
2023-03-22T09:49:24.294Z,100662.22
2023-03-22T09:51:52.781Z,100671.50
2023-03-22T09:54:32.047Z,100662.47
2023-03-22T09:57:21.657Z,100671.31
2023-03-22T10:00:14.417Z,100650.81
2023-03-22T10:02:55.267Z,100665.16
2023-03-22T10:05:30.692Z,100651.25
2023-03-22T10:08:18.448Z,100651.25
2023-03-22T10:10:45.445Z,100660.53
2023-03-22T10:13:15.317Z,100644.59
2023-03-22T10:15:47.428Z,100660.09
2023-03-22T10:18:27.444Z,100645.69
2023-03-22T10:21:01.267Z,100641.72
2023-03-22T10:23:31.804Z,100646.00
2023-03-22T10:26:01.074Z,100642.84
2023-03-22T10:28:38.565Z,100645.94
2023-03-22T10:31:06.102Z,100650.81
2023-03-22T10:33:39.639Z,100654.59
2023-03-22T10:36:12.859Z,100649.16
2023-03-22T10:38:52.676Z,100643.63
2023-03-22T10:41:23.508Z,100657.91
2023-03-22T10:43:56.608Z,100645.47
2023-03-22T10:46:26.367Z,100638.06
2023-03-22T10:48:57.989Z,100645.84
2023-03-22T10:51:48.100Z,100648.19
2023-03-22T10:54:16.985Z,100634.63
2023-03-22T10:56:45.015Z,100637.69
2023-03-22T10:59:49.674Z,100639.97
2023-03-22T11:02:20.122Z,100630.34
2023-03-22T11:04:51.832Z,100629.22
2023-03-22T11:07:37.967Z,100631.69
2023-03-22T11:10:10.577Z,100633.31
2023-03-22T11:12:44.813Z,100624.47
2023-03-22T11:15:25.211Z,100645.84
2023-03-22T11:17:53.505Z,100632.28
2023-03-22T11:20:20.936Z,100627.97
2023-03-22T11:22:48.081Z,100633.50
2023-03-22T11:25:30.425Z,100625.72
2023-03-22T11:28:09.409Z,100634.53
2023-03-22T11:30:36.254Z,100629.91
2023-03-22T11:33:08.618Z,100650.38
2023-03-22T11:35:39.322Z,100634.09
2023-03-22T11:38:05.883Z,100629.22
2023-03-22T11:40:35.511Z,100629.28
2023-03-22T11:43:17.385Z,100625.09
2023-03-22T11:45:45.072Z,100625.53
2023-03-22T11:48:23.874Z,100622.81
2023-03-22T11:50:53.872Z,100632.63
2023-03-22T11:53:24.982Z,100618.19
2023-03-22T11:55:54.845Z,100623.25
2023-03-22T11:58:37.536Z,100642.00
2023-03-22T12:01:05.970Z,100632.25
2023-03-22T12:03:40.293Z,100639.97
2023-03-22T12:06:20.257Z,100672.53
2023-03-22T12:08:53.896Z,100654.25
2023-03-22T12:11:45.166Z,100660.47
2023-03-22T12:14:40.432Z,100656.59
2023-03-22T12:17:16.880Z,100644.97
2023-03-22T12:20:30.984Z,100642.25
2023-03-22T12:22:58.317Z,100650.13
2023-03-22T12:25:35.210Z,100649.00
2023-03-22T12:28:13.245Z,100650.22
2023-03-22T12:30:44.220Z,100637.44
2023-03-22T12:33:20.777Z,100628.56
2023-03-22T12:35:51.095Z,100640.56
2023-03-22T12:38:44.121Z,100637.50
2023-03-22T12:41:26.509Z,100632.06
2023-03-22T12:43:56.605Z,100639.06
2023-03-22T12:46:49.906Z,100640.66
2023-03-22T12:49:26.383Z,100627.88
2023-03-22T12:51:55.443Z,100636.47
2023-03-22T12:54:25.703Z,100620.97
2023-03-22T12:56:54.467Z,100625.66
2023-03-22T12:59:26.506Z,100610.63
2023-03-22T13:02:05.073Z,100635.06
2023-03-22T13:04:37.336Z,100626.56
2023-03-22T13:07:37.086Z,100626.19
2023-03-22T13:10:36.275Z,100625.47
2023-03-22T13:13:17.463Z,100625.13
2023-03-22T13:15:57.775Z,100628.28
2023-03-22T13:18:37.629Z,100630.66
2023-03-22T13:21:13.852Z,100621.72
2023-03-22T13:23:56.527Z,100645.78
2023-03-22T13:26:31.555Z,100629.16
2023-03-22T13:29:00.535Z,100624.16
2023-03-22T13:32:03.293Z,100621.44
2023-03-22T13:34:38.950Z,100635.47
2023-03-22T13:37:30.181Z,100645.59
2023-03-22T13:40:02.018Z,100643.66
2023-03-22T13:42:50.252Z,100619.66
2023-03-22T13:46:01.781Z,100630.09
2023-03-22T13:48:49.058Z,100630.53
2023-03-22T13:51:31.776Z,100628.59
2023-03-22T13:53:58.380Z,100627.81
2023-03-22T13:56:44.467Z,100624.66
2023-03-22T13:59:29.862Z,100617.31
2023-03-22T14:01:59.431Z,100623.16
2023-03-22T14:04:34.912Z,100629.31
2023-03-22T14:07:20.279Z,100613.75
2023-03-22T14:09:56.674Z,100624.94
2023-03-22T14:12:47.773Z,100612.13
2023-03-22T14:15:18.297Z,100612.97
2023-03-22T14:17:58.333Z,100614.06
2023-03-22T14:20:30.429Z,100597.34
